Estación Meteorológica Peña el Pijo (Robertgarden) [ 05/25/18 12:44:58 CEST ]

Fecha Hora Presion(HPa) Temp (°C) Humedad % Rocio (°C) Viento ( m/s) Direccion Lluvia 1Hora(mm) Lluvia 24H(mm) LLuvia Total(mm)
2018-Mar-03 01:01:57 992.000 7.6 80 4.4     1.03 12.43 104.63
2018-Mar-03 02:01:46 991.900 7.7 79 4.3 3.1 WNW   12.43 104.63
2018-Mar-03 03:04:17 991.500 7.9 79 4.5 0.9 NNW   12.43 104.63
2018-Mar-03 04:01:45 992.000 8.1 71 3.2 8.1 WNW   12.43 104.63
2018-Mar-03 05:01:40 992.400 7.9 70 2.8 1.1 NW   12.43 104.63
2018-Mar-03 06:01:43 992.800 6.9 77 3.1       12.43 104.63
2018-Mar-03 07:01:52 993.300 6.0 80 2.8 0.8 N   11.39 104.63
2018-Mar-03 08:01:48 993.700 6.5 79 3.1       11.39 104.63
2018-Mar-03 09:01:48 995.100 8.1 74 3.8       10.87 104.63
2018-Mar-03 10:01:55 995.300 10.4 67 4.5 1.2 NW   10.87 104.63
2018-Mar-03 11:01:49 995.400 12.3 59 4.5 3.3 WNW   10.36 104.63
2018-Mar-03 12:01:47 995.100 12.5 58 4.4 2.3 NNE   9.32 104.63
2018-Mar-03 13:01:48 994.700 12.4 56 3.8       8.28 104.63
2018-Mar-03 14:01:49 993.400 11.8 52 2.2       8.28 104.63
2018-Mar-03 15:01:47 993.200 12.4 48 1.6 2.5 NNW   5.18 104.63
2018-Mar-03 16:01:29 993.100 11.9 48 1.2       4.66 104.63
2018-Mar-03 17:01:57 992.700 11.4 49 1.1       3.10 104.63
2018-Mar-03 18:01:41 992.800 10.6 55 1.9       2.07 104.63
2018-Mar-03 19:01:46 992.900 9.2 60 1.9       1.03 104.63
2018-Mar-03 20:01:55 992.800 8.1 66 2.1       1.03 104.63
2018-Mar-03 21:01:54 992.800 7.3 71 2.4       1.03 104.63
2018-Mar-03 22:01:47 992.300 6.5 76 2.6       1.03 104.63
2018-Mar-03 23:01:39 992.200 6.1 78 2.5       1.03 104.63

Temperatura Máxima:12°    Temperatura Mínima:
Presión Máxima:995.400 Hpa    Presión Mínima:991.500 Hpa


Volver